sensor_id;sensor_type;location;lat;lon;timestamp;P1;durP1;ratioP1;P2;durP2;ratioP2
577;SDS011;275;48.492;9.214;2023-12-20T00:02:12;5.00;;;4.50;;
577;SDS011;275;48.492;9.214;2023-12-20T00:04:39;5.15;;;4.20;;
577;SDS011;275;48.492;9.214;2023-12-20T00:07:07;4.78;;;4.03;;
577;SDS011;275;48.492;9.214;2023-12-20T00:09:34;4.85;;;3.72;;
577;SDS011;275;48.492;9.214;2023-12-20T00:12:01;5.78;;;5.18;;
577;SDS011;275;48.492;9.214;2023-12-20T00:14:28;4.72;;;4.22;;
577;SDS011;275;48.492;9.214;2023-12-20T00:16:54;6.03;;;5.30;;
577;SDS011;275;48.492;9.214;2023-12-20T00:19:21;4.85;;;4.20;;
577;SDS011;275;48.492;9.214;2023-12-20T00:21:49;5.15;;;3.53;;
577;SDS011;275;48.492;9.214;2023-12-20T00:24:17;4.82;;;4.10;;
577;SDS011;275;48.492;9.214;2023-12-20T00:26:44;5.30;;;4.70;;
577;SDS011;275;48.492;9.214;2023-12-20T00:29:10;5.22;;;4.40;;
577;SDS011;275;48.492;9.214;2023-12-20T00:31:37;4.63;;;3.85;;
577;SDS011;275;48.492;9.214;2023-12-20T00:34:04;5.30;;;4.07;;
577;SDS011;275;48.492;9.214;2023-12-20T00:36:31;5.30;;;4.70;;
577;SDS011;275;48.492;9.214;2023-12-20T00:38:57;5.38;;;4.57;;
577;SDS011;275;48.492;9.214;2023-12-20T00:41:26;5.88;;;4.22;;
577;SDS011;275;48.492;9.214;2023-12-20T00:43:52;5.90;;;4.47;;
577;SDS011;275;48.492;9.214;2023-12-20T00:46:19;5.35;;;4.60;;
577;SDS011;275;48.492;9.214;2023-12-20T00:48:46;4.80;;;4.18;;
577;SDS011;275;48.492;9.214;2023-12-20T00:51:13;4.25;;;3.83;;
577;SDS011;275;48.492;9.214;2023-12-20T00:53:39;4.70;;;3.97;;
577;SDS011;275;48.492;9.214;2023-12-20T00:56:06;4.80;;;3.53;;
577;SDS011;275;48.492;9.214;2023-12-20T00:58:34;5.57;;;4.40;;
577;SDS011;275;48.492;9.214;2023-12-20T01:01:01;4.30;;;3.50;;
577;SDS011;275;48.492;9.214;2023-12-20T01:03:28;4.63;;;3.15;;
577;SDS011;275;48.492;9.214;2023-12-20T01:05:55;3.53;;;2.90;;
577;SDS011;275;48.492;9.214;2023-12-20T01:08:22;5.57;;;2.50;;
577;SDS011;275;48.492;9.214;2023-12-20T01:10:49;3.95;;;2.40;;
577;SDS011;275;48.492;9.214;2023-12-20T01:13:16;4.28;;;2.72;;
577;SDS011;275;48.492;9.214;2023-12-20T01:15:44;4.22;;;2.58;;
577;SDS011;275;48.492;9.214;2023-12-20T01:18:12;4.40;;;3.40;;
577;SDS011;275;48.492;9.214;2023-12-20T01:20:39;3.65;;;2.50;;
577;SDS011;275;48.492;9.214;2023-12-20T01:23:06;3.78;;;2.22;;
577;SDS011;275;48.492;9.214;2023-12-20T01:25:32;3.30;;;2.25;;
577;SDS011;275;48.492;9.214;2023-12-20T01:27:59;3.25;;;2.03;;
577;SDS011;275;48.492;9.214;2023-12-20T01:30:28;3.72;;;1.92;;
577;SDS011;275;48.492;9.214;2023-12-20T01:32:56;2.97;;;1.75;;
577;SDS011;275;48.492;9.214;2023-12-20T01:35:23;3.33;;;1.70;;
577;SDS011;275;48.492;9.214;2023-12-20T01:37:49;2.83;;;1.70;;
577;SDS011;275;48.492;9.214;2023-12-20T01:40:16;3.15;;;1.65;;
577;SDS011;275;48.492;9.214;2023-12-20T01:42:43;2.83;;;1.58;;
577;SDS011;275;48.492;9.214;2023-12-20T01:45:10;3.05;;;1.83;;
577;SDS011;275;48.492;9.214;2023-12-20T01:47:37;2.78;;;1.65;;
577;SDS011;275;48.492;9.214;2023-12-20T01:50:06;3.67;;;1.73;;
577;SDS011;275;48.492;9.214;2023-12-20T01:52:34;2.83;;;1.92;;
577;SDS011;275;48.492;9.214;2023-12-20T01:55:01;3.40;;;2.10;;
577;SDS011;275;48.492;9.214;2023-12-20T01:57:31;2.88;;;1.85;;
577;SDS011;275;48.492;9.214;2023-12-20T01:59:58;2.67;;;1.60;;
577;SDS011;275;48.492;9.214;2023-12-20T02:02:25;2.50;;;1.58;;
577;SDS011;275;48.492;9.214;2023-12-20T02:04:54;3.70;;;1.60;;
577;SDS011;275;48.492;9.214;2023-12-20T02:07:22;2.83;;;1.85;;
577;SDS011;275;48.492;9.214;2023-12-20T02:09:49;2.97;;;1.55;;
577;SDS011;275;48.492;9.214;2023-12-20T02:12:16;2.90;;;1.75;;
577;SDS011;275;48.492;9.214;2023-12-20T02:14:43;2.70;;;1.50;;
577;SDS011;275;48.492;9.214;2023-12-20T02:17:10;2.50;;;1.30;;
577;SDS011;275;48.492;9.214;2023-12-20T02:19:37;2.40;;;1.40;;
577;SDS011;275;48.492;9.214;2023-12-20T02:22:06;3.20;;;1.63;;
577;SDS011;275;48.492;9.214;2023-12-20T02:24:34;2.30;;;1.30;;
577;SDS011;275;48.492;9.214;2023-12-20T02:27:00;2.60;;;1.50;;
577;SDS011;275;48.492;9.214;2023-12-20T02:29:27;2.72;;;1.75;;
577;SDS011;275;48.492;9.214;2023-12-20T02:31:54;2.40;;;1.23;;
577;SDS011;275;48.492;9.214;2023-12-20T02:34:21;3.10;;;1.58;;
577;SDS011;275;48.492;9.214;2023-12-20T02:36:48;2.60;;;1.45;;
577;SDS011;275;48.492;9.214;2023-12-20T02:39:16;2.47;;;1.33;;
577;SDS011;275;48.492;9.214;2023-12-20T02:41:44;2.50;;;1.50;;
577;SDS011;275;48.492;9.214;2023-12-20T02:44:11;2.72;;;1.67;;
577;SDS011;275;48.492;9.214;2023-12-20T02:46:37;2.45;;;1.35;;
577;SDS011;275;48.492;9.214;2023-12-20T02:49:04;3.20;;;1.67;;
577;SDS011;275;48.492;9.214;2023-12-20T02:51:32;2.60;;;1.50;;
577;SDS011;275;48.492;9.214;2023-12-20T02:53:58;2.95;;;1.90;;
577;SDS011;275;48.492;9.214;2023-12-20T02:56:27;2.47;;;1.30;;
577;SDS011;275;48.492;9.214;2023-12-20T02:58:53;2.63;;;1.80;;
577;SDS011;275;48.492;9.214;2023-12-20T03:01:20;2.42;;;1.60;;
577;SDS011;275;48.492;9.214;2023-12-20T03:03:47;2.10;;;1.20;;
577;SDS011;275;48.492;9.214;2023-12-20T03:06:15;4.57;;;1.70;;
577;SDS011;275;48.492;9.214;2023-12-20T03:08:43;2.45;;;1.20;;
577;SDS011;275;48.492;9.214;2023-12-20T03:11:09;2.90;;;1.70;;
577;SDS011;275;48.492;9.214;2023-12-20T03:13:37;2.10;;;1.30;;
577;SDS011;275;48.492;9.214;2023-12-20T03:16:07;2.63;;;1.10;;
577;SDS011;275;48.492;9.214;2023-12-20T03:18:34;2.60;;;1.60;;
577;SDS011;275;48.492;9.214;2023-12-20T03:21:01;2.53;;;1.48;;
577;SDS011;275;48.492;9.214;2023-12-20T03:23:28;2.10;;;1.15;;
577;SDS011;275;48.492;9.214;2023-12-20T03:25:55;2.70;;;1.20;;
577;SDS011;275;48.492;9.214;2023-12-20T03:28:22;2.17;;;1.15;;
577;SDS011;275;48.492;9.214;2023-12-20T03:30:50;2.17;;;1.30;;
577;SDS011;275;48.492;9.214;2023-12-20T03:33:17;2.40;;;1.40;;
577;SDS011;275;48.492;9.214;2023-12-20T03:35:44;2.10;;;1.05;;
577;SDS011;275;48.492;9.214;2023-12-20T03:38:11;2.25;;;1.48;;
577;SDS011;275;48.492;9.214;2023-12-20T03:40:37;2.30;;;1.33;;
577;SDS011;275;48.492;9.214;2023-12-20T03:43:04;2.40;;;1.30;;
577;SDS011;275;48.492;9.214;2023-12-20T03:45:31;3.05;;;1.40;;
577;SDS011;275;48.492;9.214;2023-12-20T03:47:59;2.70;;;1.30;;
577;SDS011;275;48.492;9.214;2023-12-20T03:50:26;2.90;;;1.60;;
577;SDS011;275;48.492;9.214;2023-12-20T03:52:53;2.70;;;1.20;;
577;SDS011;275;48.492;9.214;2023-12-20T03:55:20;2.33;;;1.63;;
577;SDS011;275;48.492;9.214;2023-12-20T03:57:47;2.10;;;1.02;;
577;SDS011;275;48.492;9.214;2023-12-20T04:00:14;2.13;;;1.33;;
577;SDS011;275;48.492;9.214;2023-12-20T04:02:41;2.30;;;1.10;;
577;SDS011;275;48.492;9.214;2023-12-20T04:05:09;2.65;;;1.20;;
577;SDS011;275;48.492;9.214;2023-12-20T04:07:36;2.00;;;1.10;;
577;SDS011;275;48.492;9.214;2023-12-20T04:10:04;2.55;;;1.13;;
577;SDS011;275;48.492;9.214;2023-12-20T04:12:32;3.28;;;1.33;;
577;SDS011;275;48.492;9.214;2023-12-20T04:14:59;2.20;;;1.27;;
577;SDS011;275;48.492;9.214;2023-12-20T04:17:25;2.20;;;1.20;;
577;SDS011;275;48.492;9.214;2023-12-20T04:19:52;2.03;;;1.00;;
577;SDS011;275;48.492;9.214;2023-12-20T04:22:20;2.00;;;1.10;;
577;SDS011;275;48.492;9.214;2023-12-20T04:24:48;2.58;;;1.00;;
577;SDS011;275;48.492;9.214;2023-12-20T04:27:14;3.75;;;1.00;;
577;SDS011;275;48.492;9.214;2023-12-20T04:29:41;2.10;;;1.00;;
577;SDS011;275;48.492;9.214;2023-12-20T04:32:08;3.13;;;1.20;;
577;SDS011;275;48.492;9.214;2023-12-20T04:34:35;2.78;;;1.20;;
577;SDS011;275;48.492;9.214;2023-12-20T04:37:02;1.90;;;0.70;;
577;SDS011;275;48.492;9.214;2023-12-20T04:39:31;2.10;;;1.05;;
577;SDS011;275;48.492;9.214;2023-12-20T04:41:58;2.00;;;1.10;;
577;SDS011;275;48.492;9.214;2023-12-20T04:44:25;2.53;;;1.13;;
577;SDS011;275;48.492;9.214;2023-12-20T04:46:51;2.00;;;0.90;;
577;SDS011;275;48.492;9.214;2023-12-20T04:49:18;2.25;;;1.17;;
577;SDS011;275;48.492;9.214;2023-12-20T04:51:45;2.30;;;0.98;;
577;SDS011;275;48.492;9.214;2023-12-20T04:54:12;2.13;;;0.90;;
577;SDS011;275;48.492;9.214;2023-12-20T04:56:40;2.03;;;0.95;;
577;SDS011;275;48.492;9.214;2023-12-20T04:59:07;1.98;;;0.80;;
577;SDS011;275;48.492;9.214;2023-12-20T05:01:34;2.25;;;1.00;;
577;SDS011;275;48.492;9.214;2023-12-20T05:04:01;2.00;;;0.90;;
577;SDS011;275;48.492;9.214;2023-12-20T05:06:28;2.63;;;0.90;;
577;SDS011;275;48.492;9.214;2023-12-20T05:08:55;1.80;;;0.80;;
577;SDS011;275;48.492;9.214;2023-12-20T05:11:21;2.00;;;0.90;;
577;SDS011;275;48.492;9.214;2023-12-20T05:13:49;1.90;;;0.90;;
577;SDS011;275;48.492;9.214;2023-12-20T05:16:16;1.98;;;0.90;;
577;SDS011;275;48.492;9.214;2023-12-20T05:18:44;1.80;;;0.73;;
577;SDS011;275;48.492;9.214;2023-12-20T05:21:11;2.42;;;0.98;;
577;SDS011;275;48.492;9.214;2023-12-20T05:23:38;2.33;;;0.80;;
577;SDS011;275;48.492;9.214;2023-12-20T05:26:05;1.90;;;0.80;;
577;SDS011;275;48.492;9.214;2023-12-20T05:28:31;1.90;;;0.90;;
577;SDS011;275;48.492;9.214;2023-12-20T05:31:00;1.98;;;0.90;;
577;SDS011;275;48.492;9.214;2023-12-20T05:33:27;1.83;;;0.70;;
577;SDS011;275;48.492;9.214;2023-12-20T05:35:54;2.22;;;0.70;;
577;SDS011;275;48.492;9.214;2023-12-20T05:38:21;1.90;;;0.80;;
577;SDS011;275;48.492;9.214;2023-12-20T05:40:47;1.88;;;0.80;;
577;SDS011;275;48.492;9.214;2023-12-20T05:43:14;1.92;;;0.80;;
577;SDS011;275;48.492;9.214;2023-12-20T05:45:41;2.00;;;0.80;;
577;SDS011;275;48.492;9.214;2023-12-20T05:48:09;2.00;;;0.70;;
577;SDS011;275;48.492;9.214;2023-12-20T05:50:36;2.80;;;0.95;;
577;SDS011;275;48.492;9.214;2023-12-20T05:53:04;2.35;;;0.82;;
577;SDS011;275;48.492;9.214;2023-12-20T05:55:31;2.10;;;0.70;;
577;SDS011;275;48.492;9.214;2023-12-20T05:57:58;2.00;;;0.90;;
577;SDS011;275;48.492;9.214;2023-12-20T06:00:24;1.80;;;0.70;;
577;SDS011;275;48.492;9.214;2023-12-20T06:02:51;1.80;;;0.70;;
577;SDS011;275;48.492;9.214;2023-12-20T06:05:20;2.20;;;0.90;;
577;SDS011;275;48.492;9.214;2023-12-20T06:07:46;1.80;;;0.70;;
577;SDS011;275;48.492;9.214;2023-12-20T06:10:15;2.00;;;0.90;;
577;SDS011;275;48.492;9.214;2023-12-20T06:12:42;1.90;;;0.90;;
577;SDS011;275;48.492;9.214;2023-12-20T06:15:10;1.95;;;0.80;;
577;SDS011;275;48.492;9.214;2023-12-20T06:17:36;1.92;;;0.70;;
577;SDS011;275;48.492;9.214;2023-12-20T06:20:04;2.88;;;1.20;;
577;SDS011;275;48.492;9.214;2023-12-20T06:22:34;1.80;;;0.70;;
577;SDS011;275;48.492;9.214;2023-12-20T06:25:01;2.00;;;0.90;;
577;SDS011;275;48.492;9.214;2023-12-20T06:27:28;1.95;;;0.68;;
577;SDS011;275;48.492;9.214;2023-12-20T06:29:54;2.70;;;1.20;;
577;SDS011;275;48.492;9.214;2023-12-20T06:32:21;3.47;;;1.13;;
577;SDS011;275;48.492;9.214;2023-12-20T06:34:49;3.28;;;1.15;;
577;SDS011;275;48.492;9.214;2023-12-20T06:37:16;2.20;;;1.10;;
577;SDS011;275;48.492;9.214;2023-12-20T06:39:44;3.78;;;1.33;;
577;SDS011;275;48.492;9.214;2023-12-20T06:42:11;2.75;;;1.63;;
577;SDS011;275;48.492;9.214;2023-12-20T06:44:38;2.10;;;1.15;;
577;SDS011;275;48.492;9.214;2023-12-20T06:47:05;2.47;;;1.13;;
577;SDS011;275;48.492;9.214;2023-12-20T06:49:32;3.50;;;1.65;;
577;SDS011;275;48.492;9.214;2023-12-20T06:51:58;3.60;;;1.48;;
577;SDS011;275;48.492;9.214;2023-12-20T06:54:25;2.60;;;1.63;;
577;SDS011;275;48.492;9.214;2023-12-20T06:56:53;2.65;;;1.42;;
577;SDS011;275;48.492;9.214;2023-12-20T06:59:20;2.80;;;1.33;;
577;SDS011;275;48.492;9.214;2023-12-20T07:01:47;2.80;;;1.20;;
577;SDS011;275;48.492;9.214;2023-12-20T07:04:15;2.65;;;1.23;;
577;SDS011;275;48.492;9.214;2023-12-20T07:06:45;2.30;;;1.17;;
577;SDS011;275;48.492;9.214;2023-12-20T07:09:12;2.30;;;1.30;;
577;SDS011;275;48.492;9.214;2023-12-20T07:11:40;2.17;;;1.02;;
577;SDS011;275;48.492;9.214;2023-12-20T07:14:08;2.38;;;1.17;;
577;SDS011;275;48.492;9.214;2023-12-20T07:16:35;3.67;;;2.47;;
577;SDS011;275;48.492;9.214;2023-12-20T07:19:02;2.20;;;1.20;;
577;SDS011;275;48.492;9.214;2023-12-20T07:21:28;2.58;;;1.30;;
577;SDS011;275;48.492;9.214;2023-12-20T07:23:55;2.20;;;1.00;;
577;SDS011;275;48.492;9.214;2023-12-20T07:26:22;2.70;;;1.40;;
577;SDS011;275;48.492;9.214;2023-12-20T07:28:49;2.13;;;1.00;;
577;SDS011;275;48.492;9.214;2023-12-20T07:31:17;1.80;;;0.80;;
577;SDS011;275;48.492;9.214;2023-12-20T07:33:44;2.40;;;1.10;;
577;SDS011;275;48.492;9.214;2023-12-20T07:36:12;2.20;;;1.15;;
577;SDS011;275;48.492;9.214;2023-12-20T07:38:39;2.05;;;0.80;;
577;SDS011;275;48.492;9.214;2023-12-20T07:41:09;2.75;;;1.10;;
577;SDS011;275;48.492;9.214;2023-12-20T07:43:36;2.38;;;0.90;;
577;SDS011;275;48.492;9.214;2023-12-20T07:46:05;2.20;;;0.98;;
577;SDS011;275;48.492;9.214;2023-12-20T07:48:34;2.38;;;0.85;;
577;SDS011;275;48.492;9.214;2023-12-20T07:51:02;2.20;;;0.90;;
577;SDS011;275;48.492;9.214;2023-12-20T07:53:29;2.25;;;1.00;;
577;SDS011;275;48.492;9.214;2023-12-20T07:55:56;1.95;;;0.77;;
577;SDS011;275;48.492;9.214;2023-12-20T07:58:22;2.38;;;1.00;;
577;SDS011;275;48.492;9.214;2023-12-20T08:00:49;2.58;;;1.20;;
577;SDS011;275;48.492;9.214;2023-12-20T08:03:16;2.45;;;1.15;;
577;SDS011;275;48.492;9.214;2023-12-20T08:05:44;2.35;;;1.40;;
577;SDS011;275;48.492;9.214;2023-12-20T08:08:11;2.92;;;1.48;;
577;SDS011;275;48.492;9.214;2023-12-20T08:10:38;2.50;;;1.10;;
577;SDS011;275;48.492;9.214;2023-12-20T08:13:04;3.20;;;1.38;;
577;SDS011;275;48.492;9.214;2023-12-20T08:15:31;2.30;;;1.25;;
577;SDS011;275;48.492;9.214;2023-12-20T08:17:58;2.70;;;1.50;;
577;SDS011;275;48.492;9.214;2023-12-20T08:20:25;2.65;;;1.55;;
577;SDS011;275;48.492;9.214;2023-12-20T08:22:53;2.50;;;1.50;;
577;SDS011;275;48.492;9.214;2023-12-20T08:25:20;3.55;;;2.20;;
577;SDS011;275;48.492;9.214;2023-12-20T08:27:47;2.90;;;1.20;;
577;SDS011;275;48.492;9.214;2023-12-20T08:30:14;2.40;;;1.35;;
577;SDS011;275;48.492;9.214;2023-12-20T08:32:42;2.25;;;1.23;;
577;SDS011;275;48.492;9.214;2023-12-20T08:35:09;2.75;;;1.60;;
577;SDS011;275;48.492;9.214;2023-12-20T08:37:36;3.50;;;1.30;;
577;SDS011;275;48.492;9.214;2023-12-20T08:40:04;2.60;;;1.50;;
577;SDS011;275;48.492;9.214;2023-12-20T08:42:32;3.00;;;1.63;;
577;SDS011;275;48.492;9.214;2023-12-20T08:44:59;3.10;;;1.73;;
577;SDS011;275;48.492;9.214;2023-12-20T08:47:25;3.40;;;2.00;;
577;SDS011;275;48.492;9.214;2023-12-20T08:49:52;3.90;;;2.28;;
577;SDS011;275;48.492;9.214;2023-12-20T08:52:21;5.85;;;4.47;;
577;SDS011;275;48.492;9.214;2023-12-20T08:54:48;39.38;;;35.17;;
577;SDS011;275;48.492;9.214;2023-12-20T08:57:18;37.40;;;33.50;;
577;SDS011;275;48.492;9.214;2023-12-20T08:59:45;13.38;;;12.02;;
577;SDS011;275;48.492;9.214;2023-12-20T09:02:12;5.95;;;4.22;;
577;SDS011;275;48.492;9.214;2023-12-20T09:04:40;3.70;;;2.05;;
577;SDS011;275;48.492;9.214;2023-12-20T09:07:07;4.25;;;2.45;;
577;SDS011;275;48.492;9.214;2023-12-20T09:09:46;6.45;;;3.70;;
577;SDS011;275;48.492;9.214;2023-12-20T09:12:13;4.78;;;3.50;;
577;SDS011;275;48.492;9.214;2023-12-20T09:14:41;3.42;;;2.47;;
577;SDS011;275;48.492;9.214;2023-12-20T09:17:08;3.80;;;2.45;;
577;SDS011;275;48.492;9.214;2023-12-20T09:19:36;7.28;;;5.03;;
577;SDS011;275;48.492;9.214;2023-12-20T09:22:03;3.50;;;2.20;;
577;SDS011;275;48.492;9.214;2023-12-20T09:24:30;4.50;;;2.47;;
577;SDS011;275;48.492;9.214;2023-12-20T09:26:58;3.75;;;2.55;;
577;SDS011;275;48.492;9.214;2023-12-20T09:29:24;3.30;;;1.73;;
577;SDS011;275;48.492;9.214;2023-12-20T09:31:53;4.22;;;2.60;;
577;SDS011;275;48.492;9.214;2023-12-20T09:34:19;5.93;;;4.35;;
577;SDS011;275;48.492;9.214;2023-12-20T09:36:47;3.88;;;3.30;;
577;SDS011;275;48.492;9.214;2023-12-20T09:39:14;4.80;;;3.30;;
577;SDS011;275;48.492;9.214;2023-12-20T09:41:44;5.03;;;2.58;;
577;SDS011;275;48.492;9.214;2023-12-20T09:44:15;6.18;;;4.78;;
577;SDS011;275;48.492;9.214;2023-12-20T09:46:44;5.85;;;4.32;;
577;SDS011;275;48.492;9.214;2023-12-20T09:49:13;9.27;;;5.53;;
577;SDS011;275;48.492;9.214;2023-12-20T09:51:40;6.03;;;4.97;;
577;SDS011;275;48.492;9.214;2023-12-20T09:54:07;8.98;;;6.93;;
577;SDS011;275;48.492;9.214;2023-12-20T09:56:36;6.35;;;4.90;;
577;SDS011;275;48.492;9.214;2023-12-20T09:59:03;6.25;;;4.40;;
577;SDS011;275;48.492;9.214;2023-12-20T10:01:30;6.20;;;4.97;;
577;SDS011;275;48.492;9.214;2023-12-20T10:03:58;5.18;;;4.00;;
577;SDS011;275;48.492;9.214;2023-12-20T10:06:28;6.18;;;4.70;;
577;SDS011;275;48.492;9.214;2023-12-20T10:08:54;4.82;;;3.45;;
577;SDS011;275;48.492;9.214;2023-12-20T10:11:21;6.40;;;4.40;;
577;SDS011;275;48.492;9.214;2023-12-20T10:13:48;6.65;;;3.15;;
577;SDS011;275;48.492;9.214;2023-12-20T10:16:15;7.20;;;4.43;;
577;SDS011;275;48.492;9.214;2023-12-20T10:18:42;7.43;;;4.28;;
577;SDS011;275;48.492;9.214;2023-12-20T10:21:09;7.70;;;3.63;;
577;SDS011;275;48.492;9.214;2023-12-20T10:23:38;7.10;;;4.80;;
577;SDS011;275;48.492;9.214;2023-12-20T10:26:05;9.75;;;4.68;;
577;SDS011;275;48.492;9.214;2023-12-20T10:28:33;5.15;;;3.20;;
577;SDS011;275;48.492;9.214;2023-12-20T10:31:00;6.43;;;5.25;;
577;SDS011;275;48.492;9.214;2023-12-20T10:33:27;6.35;;;5.50;;
577;SDS011;275;48.492;9.214;2023-12-20T10:35:55;7.40;;;4.95;;
577;SDS011;275;48.492;9.214;2023-12-20T10:38:22;8.63;;;4.15;;
577;SDS011;275;48.492;9.214;2023-12-20T10:40:50;10.93;;;6.80;;
577;SDS011;275;48.492;9.214;2023-12-20T10:43:22;7.20;;;4.03;;
577;SDS011;275;48.492;9.214;2023-12-20T10:45:52;5.03;;;3.47;;
577;SDS011;275;48.492;9.214;2023-12-20T10:48:19;9.63;;;5.68;;
577;SDS011;275;48.492;9.214;2023-12-20T10:50:54;6.90;;;4.28;;
577;SDS011;275;48.492;9.214;2023-12-20T10:53:22;6.68;;;4.10;;
577;SDS011;275;48.492;9.214;2023-12-20T10:55:52;5.63;;;3.30;;
577;SDS011;275;48.492;9.214;2023-12-20T10:58:21;7.72;;;5.15;;
577;SDS011;275;48.492;9.214;2023-12-20T11:00:50;5.53;;;3.10;;
577;SDS011;275;48.492;9.214;2023-12-20T11:03:22;6.88;;;3.85;;
577;SDS011;275;48.492;9.214;2023-12-20T11:05:52;6.68;;;3.80;;
577;SDS011;275;48.492;9.214;2023-12-20T11:08:31;5.35;;;3.97;;
577;SDS011;275;48.492;9.214;2023-12-20T11:11:05;6.50;;;4.88;;
577;SDS011;275;48.492;9.214;2023-12-20T11:13:40;6.00;;;3.58;;
577;SDS011;275;48.492;9.214;2023-12-20T11:16:14;5.57;;;3.30;;
577;SDS011;275;48.492;9.214;2023-12-20T11:18:41;5.75;;;2.80;;
577;SDS011;275;48.492;9.214;2023-12-20T11:21:07;6.28;;;4.30;;
577;SDS011;275;48.492;9.214;2023-12-20T11:23:34;10.05;;;7.60;;
577;SDS011;275;48.492;9.214;2023-12-20T11:26:01;8.55;;;6.88;;
577;SDS011;275;48.492;9.214;2023-12-20T11:28:30;6.00;;;3.65;;
577;SDS011;275;48.492;9.214;2023-12-20T11:30:58;4.65;;;2.60;;
577;SDS011;275;48.492;9.214;2023-12-20T11:33:26;6.05;;;3.47;;
577;SDS011;275;48.492;9.214;2023-12-20T11:35:56;5.57;;;3.53;;
577;SDS011;275;48.492;9.214;2023-12-20T11:38:24;7.85;;;4.38;;
577;SDS011;275;48.492;9.214;2023-12-20T11:40:53;5.35;;;4.25;;
577;SDS011;275;48.492;9.214;2023-12-20T11:43:31;9.13;;;6.78;;
577;SDS011;275;48.492;9.214;2023-12-20T11:46:02;6.22;;;2.83;;
577;SDS011;275;48.492;9.214;2023-12-20T11:48:30;6.90;;;3.63;;
577;SDS011;275;48.492;9.214;2023-12-20T11:50:58;7.18;;;5.03;;
577;SDS011;275;48.492;9.214;2023-12-20T11:53:24;5.63;;;4.40;;
577;SDS011;275;48.492;9.214;2023-12-20T11:55:51;9.35;;;5.10;;
577;SDS011;275;48.492;9.214;2023-12-20T11:58:19;6.60;;;4.35;;
577;SDS011;275;48.492;9.214;2023-12-20T12:00:48;12.88;;;7.15;;
577;SDS011;275;48.492;9.214;2023-12-20T12:03:15;9.05;;;6.55;;
577;SDS011;275;48.492;9.214;2023-12-20T12:05:43;5.55;;;4.68;;
577;SDS011;275;48.492;9.214;2023-12-20T12:08:12;13.20;;;9.45;;
577;SDS011;275;48.492;9.214;2023-12-20T12:10:39;15.63;;;10.77;;
577;SDS011;275;48.492;9.214;2023-12-20T12:13:06;11.15;;;8.23;;
577;SDS011;275;48.492;9.214;2023-12-20T12:15:33;6.43;;;4.72;;
577;SDS011;275;48.492;9.214;2023-12-20T12:18:01;7.65;;;5.25;;
577;SDS011;275;48.492;9.214;2023-12-20T12:20:28;8.73;;;5.53;;
577;SDS011;275;48.492;9.214;2023-12-20T12:22:58;20.80;;;9.50;;
577;SDS011;275;48.492;9.214;2023-12-20T12:25:25;6.65;;;5.45;;
577;SDS011;275;48.492;9.214;2023-12-20T12:27:53;11.70;;;7.47;;
577;SDS011;275;48.492;9.214;2023-12-20T12:30:19;4.82;;;3.63;;
577;SDS011;275;48.492;9.214;2023-12-20T12:32:47;8.05;;;4.47;;
577;SDS011;275;48.492;9.214;2023-12-20T12:35:15;7.68;;;3.58;;
577;SDS011;275;48.492;9.214;2023-12-20T12:37:42;7.47;;;3.65;;
577;SDS011;275;48.492;9.214;2023-12-20T12:40:10;8.30;;;4.03;;
577;SDS011;275;48.492;9.214;2023-12-20T12:42:38;7.80;;;4.85;;
577;SDS011;275;48.492;9.214;2023-12-20T12:45:06;4.95;;;2.95;;
577;SDS011;275;48.492;9.214;2023-12-20T12:47:33;8.35;;;3.35;;
577;SDS011;275;48.492;9.214;2023-12-20T12:50:01;8.68;;;3.28;;
577;SDS011;275;48.492;9.214;2023-12-20T12:52:30;7.18;;;2.90;;
577;SDS011;275;48.492;9.214;2023-12-20T12:54:57;7.75;;;3.15;;
577;SDS011;275;48.492;9.214;2023-12-20T12:57:24;8.50;;;3.15;;
577;SDS011;275;48.492;9.214;2023-12-20T12:59:51;7.93;;;3.20;;
577;SDS011;275;48.492;9.214;2023-12-20T13:02:18;6.85;;;2.67;;
577;SDS011;275;48.492;9.214;2023-12-20T13:04:45;7.25;;;2.45;;
577;SDS011;275;48.492;9.214;2023-12-20T13:07:12;5.72;;;2.63;;
577;SDS011;275;48.492;9.214;2023-12-20T13:09:40;6.75;;;3.10;;
577;SDS011;275;48.492;9.214;2023-12-20T13:12:07;6.47;;;3.80;;
577;SDS011;275;48.492;9.214;2023-12-20T13:14:35;9.13;;;4.00;;
577;SDS011;275;48.492;9.214;2023-12-20T13:17:03;7.90;;;4.55;;
577;SDS011;275;48.492;9.214;2023-12-20T13:19:31;8.48;;;3.70;;
577;SDS011;275;48.492;9.214;2023-12-20T13:21:58;8.43;;;4.22;;
577;SDS011;275;48.492;9.214;2023-12-20T13:24:25;6.03;;;3.13;;
577;SDS011;275;48.492;9.214;2023-12-20T13:26:53;8.75;;;3.22;;
577;SDS011;275;48.492;9.214;2023-12-20T13:29:19;6.53;;;3.40;;
577;SDS011;275;48.492;9.214;2023-12-20T13:31:46;6.07;;;3.05;;
577;SDS011;275;48.492;9.214;2023-12-20T13:34:13;6.95;;;3.88;;
577;SDS011;275;48.492;9.214;2023-12-20T13:36:42;8.27;;;3.40;;
577;SDS011;275;48.492;9.214;2023-12-20T13:39:12;7.28;;;2.67;;
577;SDS011;275;48.492;9.214;2023-12-20T13:41:39;5.10;;;3.53;;
577;SDS011;275;48.492;9.214;2023-12-20T13:44:07;8.00;;;3.75;;
577;SDS011;275;48.492;9.214;2023-12-20T13:46:34;8.60;;;3.97;;
577;SDS011;275;48.492;9.214;2023-12-20T13:49:02;8.20;;;3.40;;
577;SDS011;275;48.492;9.214;2023-12-20T13:51:30;6.32;;;4.10;;
577;SDS011;275;48.492;9.214;2023-12-20T13:53:57;6.68;;;3.55;;
577;SDS011;275;48.492;9.214;2023-12-20T13:56:25;11.13;;;7.53;;
577;SDS011;275;48.492;9.214;2023-12-20T13:58:51;6.50;;;3.70;;
577;SDS011;275;48.492;9.214;2023-12-20T14:01:20;5.07;;;2.15;;
577;SDS011;275;48.492;9.214;2023-12-20T14:03:47;10.07;;;4.68;;
577;SDS011;275;48.492;9.214;2023-12-20T14:06:13;7.88;;;5.95;;
577;SDS011;275;48.492;9.214;2023-12-20T14:08:41;8.32;;;3.42;;
577;SDS011;275;48.492;9.214;2023-12-20T14:11:08;7.47;;;3.55;;
577;SDS011;275;48.492;9.214;2023-12-20T14:13:35;6.10;;;1.90;;
577;SDS011;275;48.492;9.214;2023-12-20T14:16:02;6.78;;;3.13;;
577;SDS011;275;48.492;9.214;2023-12-20T14:18:31;7.38;;;3.10;;
577;SDS011;275;48.492;9.214;2023-12-20T14:20:58;8.10;;;4.72;;
577;SDS011;275;48.492;9.214;2023-12-20T14:23:25;10.80;;;4.10;;
577;SDS011;275;48.492;9.214;2023-12-20T14:25:52;5.55;;;2.65;;
577;SDS011;275;48.492;9.214;2023-12-20T14:28:20;9.60;;;4.15;;
577;SDS011;275;48.492;9.214;2023-12-20T14:30:47;7.20;;;4.57;;
577;SDS011;275;48.492;9.214;2023-12-20T14:33:14;8.02;;;3.50;;
577;SDS011;275;48.492;9.214;2023-12-20T14:35:43;6.95;;;3.40;;
577;SDS011;275;48.492;9.214;2023-12-20T14:38:09;6.32;;;3.20;;
577;SDS011;275;48.492;9.214;2023-12-20T14:40:38;7.10;;;3.40;;
577;SDS011;275;48.492;9.214;2023-12-20T14:43:05;9.13;;;4.68;;
577;SDS011;275;48.492;9.214;2023-12-20T14:45:32;9.93;;;5.15;;
577;SDS011;275;48.492;9.214;2023-12-20T14:47:59;8.50;;;3.63;;
577;SDS011;275;48.492;9.214;2023-12-20T14:50:26;6.72;;;2.80;;
577;SDS011;275;48.492;9.214;2023-12-20T14:52:54;6.38;;;3.72;;
577;SDS011;275;48.492;9.214;2023-12-20T14:55:21;8.73;;;4.70;;
577;SDS011;275;48.492;9.214;2023-12-20T14:57:48;7.75;;;4.18;;
577;SDS011;275;48.492;9.214;2023-12-20T15:00:15;6.20;;;2.53;;
577;SDS011;275;48.492;9.214;2023-12-20T15:02:42;7.10;;;3.30;;
577;SDS011;275;48.492;9.214;2023-12-20T15:05:10;8.82;;;5.57;;
577;SDS011;275;48.492;9.214;2023-12-20T15:07:36;8.95;;;5.10;;
577;SDS011;275;48.492;9.214;2023-12-20T15:10:05;12.70;;;9.02;;
577;SDS011;275;48.492;9.214;2023-12-20T15:12:33;6.80;;;3.35;;
577;SDS011;275;48.492;9.214;2023-12-20T15:15:02;9.32;;;4.78;;
577;SDS011;275;48.492;9.214;2023-12-20T15:17:29;7.88;;;3.80;;
577;SDS011;275;48.492;9.214;2023-12-20T15:19:56;9.02;;;4.93;;
577;SDS011;275;48.492;9.214;2023-12-20T15:22:23;5.40;;;3.03;;
577;SDS011;275;48.492;9.214;2023-12-20T15:24:51;10.10;;;5.07;;
577;SDS011;275;48.492;9.214;2023-12-20T15:27:21;10.80;;;6.53;;
577;SDS011;275;48.492;9.214;2023-12-20T15:29:48;9.05;;;3.20;;
577;SDS011;275;48.492;9.214;2023-12-20T15:32:16;8.32;;;4.82;;
577;SDS011;275;48.492;9.214;2023-12-20T15:34:44;6.55;;;2.88;;
577;SDS011;275;48.492;9.214;2023-12-20T15:37:10;8.35;;;4.82;;
577;SDS011;275;48.492;9.214;2023-12-20T15:39:37;11.30;;;5.72;;
577;SDS011;275;48.492;9.214;2023-12-20T15:42:04;10.88;;;5.50;;
577;SDS011;275;48.492;9.214;2023-12-20T15:44:32;5.97;;;3.63;;
577;SDS011;275;48.492;9.214;2023-12-20T15:46:59;11.80;;;7.93;;